createdAt,value
2023-01-08T00:01:09.794Z,99266.31
2023-01-08T00:03:37.735Z,99266.84
2023-01-08T00:06:06.524Z,99257.06
2023-01-08T00:08:33.595Z,99257.66
2023-01-08T00:11:00.548Z,99262.81
2023-01-08T00:13:27.274Z,99267.84
2023-01-08T00:15:54.305Z,99278.00
2023-01-08T00:18:21.292Z,99269.94
2023-01-08T00:20:48.516Z,99278.34
2023-01-08T00:23:16.910Z,99265.31
2023-01-08T00:25:43.522Z,99272.13
2023-01-08T00:28:10.223Z,99262.63
2023-01-08T00:30:37.629Z,99259.97
2023-01-08T00:33:04.379Z,99264.34
2023-01-08T00:35:31.047Z,99258.16
2023-01-08T00:37:57.616Z,99249.19
2023-01-08T00:40:24.274Z,99252.88
2023-01-08T00:42:50.838Z,99249.56
2023-01-08T00:45:17.447Z,99262.09
2023-01-08T00:47:44.050Z,99261.72
2023-01-08T00:50:11.003Z,99260.88
2023-01-08T00:52:37.566Z,99257.41
2023-01-08T00:55:04.577Z,99258.06
2023-01-08T00:57:35.696Z,99248.72
2023-01-08T01:00:03.438Z,99247.91
2023-01-08T01:02:29.967Z,99256.41
2023-01-08T01:04:56.650Z,99263.53
2023-01-08T01:07:23.284Z,99266.44
2023-01-08T01:09:49.849Z,99264.63
2023-01-08T01:12:16.471Z,99260.31
2023-01-08T01:14:43.053Z,99248.84
2023-01-08T01:17:11.661Z,99240.16
2023-01-08T01:19:38.485Z,99252.09
2023-01-08T01:22:05.551Z,99249.66
2023-01-08T01:24:32.190Z,99251.50
2023-01-08T01:26:58.727Z,99249.00
2023-01-08T01:29:25.903Z,99254.97
2023-01-08T01:31:57.276Z,99254.50
2023-01-08T01:34:23.890Z,99258.78
2023-01-08T01:36:50.404Z,99250.66
2023-01-08T01:39:17.351Z,99242.88
2023-01-08T01:41:45.322Z,99242.44
2023-01-08T01:44:46.080Z,99240.88
2023-01-08T01:47:18.273Z,99234.94
2023-01-08T01:49:50.907Z,99225.72
2023-01-08T01:52:17.558Z,99232.13
2023-01-08T01:54:44.144Z,99240.09
2023-01-08T01:57:10.768Z,99238.91
2023-01-08T01:59:37.306Z,99236.06
2023-01-08T02:02:04.170Z,99225.41
2023-01-08T02:04:30.836Z,99228.22
2023-01-08T02:07:13.590Z,99230.03
2023-01-08T02:10:06.225Z,99218.19
2023-01-08T02:12:45.528Z,99225.75
2023-01-08T02:15:27.592Z,99228.88
2023-01-08T02:18:13.739Z,99226.66
2023-01-08T02:20:44.011Z,99217.72
2023-01-08T02:23:46.246Z,99222.66
2023-01-08T02:26:12.739Z,99222.50
2023-01-08T02:29:09.527Z,99224.75
2023-01-08T02:31:38.958Z,99213.28
2023-01-08T02:34:05.622Z,99207.59
2023-01-08T02:36:50.979Z,99211.25
2023-01-08T02:39:54.931Z,99219.41
2023-01-08T02:42:40.226Z,99222.75
2023-01-08T02:45:22.152Z,99217.81
2023-01-08T02:48:03.038Z,99216.66
2023-01-08T02:50:41.152Z,99219.41
2023-01-08T02:53:24.331Z,99211.72
2023-01-08T02:56:11.992Z,99203.59
2023-01-08T02:58:39.682Z,99191.94
2023-01-08T03:01:08.618Z,99200.44
2023-01-08T03:03:36.783Z,99206.34
2023-01-08T03:06:06.494Z,99193.28
2023-01-08T03:08:39.582Z,99197.56
2023-01-08T03:11:08.808Z,99191.19
2023-01-08T03:13:44.398Z,99189.47
2023-01-08T03:16:18.000Z,99191.56
2023-01-08T03:18:49.813Z,99193.94
2023-01-08T03:21:18.176Z,99188.25
2023-01-08T03:23:45.351Z,99185.59
2023-01-08T03:26:13.893Z,99180.13
2023-01-08T03:28:45.449Z,99184.81
2023-01-08T03:31:15.237Z,99175.13
2023-01-08T03:33:43.447Z,99171.75
2023-01-08T03:36:13.487Z,99161.44
2023-01-08T03:38:43.951Z,99153.41
2023-01-08T03:41:13.919Z,99146.94
2023-01-08T03:43:40.803Z,99147.75
2023-01-08T03:46:10.184Z,99147.47
2023-01-08T03:48:38.538Z,99149.03
2023-01-08T03:51:09.539Z,99159.06
2023-01-08T03:53:36.379Z,99161.72
2023-01-08T03:56:03.129Z,99154.88
2023-01-08T03:58:29.708Z,99152.56
2023-01-08T04:00:56.268Z,99146.94
2023-01-08T04:03:24.558Z,99144.91
2023-01-08T04:05:51.240Z,99143.72
2023-01-08T04:08:17.851Z,99142.47
2023-01-08T04:10:44.401Z,99143.00
2023-01-08T04:13:10.959Z,99143.63
2023-01-08T04:15:37.666Z,99144.47
2023-01-08T04:18:04.330Z,99145.47
2023-01-08T04:20:30.874Z,99145.28
2023-01-08T04:22:57.436Z,99146.28
2023-01-08T04:25:24.085Z,99143.56
2023-01-08T04:27:50.633Z,99136.97
2023-01-08T04:30:17.260Z,99138.34
2023-01-08T04:32:43.861Z,99133.69
2023-01-08T04:35:10.503Z,99132.16
2023-01-08T04:37:37.337Z,99128.84
2023-01-08T04:40:04.413Z,99129.28
2023-01-08T04:42:31.066Z,99135.06
2023-01-08T04:44:57.604Z,99141.34
2023-01-08T04:47:24.184Z,99140.91
2023-01-08T04:49:50.728Z,99147.75
2023-01-08T04:52:17.311Z,99147.03
2023-01-08T04:54:43.890Z,99136.06
2023-01-08T04:57:10.529Z,99136.91
2023-01-08T04:59:37.115Z,99130.59
2023-01-08T05:02:03.917Z,99131.41
2023-01-08T05:04:30.715Z,99133.03
2023-01-08T05:06:57.281Z,99121.72
2023-01-08T05:09:23.873Z,99120.28
2023-01-08T05:11:50.523Z,99122.94
2023-01-08T05:14:17.134Z,99112.06
2023-01-08T05:16:43.695Z,99113.25
2023-01-08T05:19:10.288Z,99109.50
2023-01-08T05:21:36.931Z,99110.78
2023-01-08T05:24:03.679Z,99105.41
2023-01-08T05:26:30.339Z,99107.34
2023-01-08T05:28:57.823Z,99109.88
2023-01-08T05:31:25.269Z,99110.88
2023-01-08T05:33:51.974Z,99116.38
2023-01-08T05:36:18.802Z,99115.56
2023-01-08T05:38:45.356Z,99121.41
2023-01-08T05:41:12.015Z,99117.16
2023-01-08T05:43:38.566Z,99118.53
2023-01-08T05:46:05.955Z,99124.31
2023-01-08T05:48:34.269Z,99120.63
2023-01-08T05:51:01.204Z,99123.50
2023-01-08T05:53:27.826Z,99119.75
2023-01-08T05:56:01.814Z,99123.84
2023-01-08T05:58:28.560Z,99114.81
2023-01-08T06:00:55.172Z,99115.81
2023-01-08T06:03:22.943Z,99114.72
2023-01-08T06:05:49.552Z,99117.09
2023-01-08T06:08:17.644Z,99103.03
2023-01-08T06:10:44.307Z,99099.84
2023-01-08T06:13:10.955Z,99099.84
2023-01-08T06:15:39.313Z,99100.22
2023-01-08T06:18:06.125Z,99093.72
2023-01-08T06:20:32.735Z,99094.47
2023-01-08T06:22:59.349Z,99089.28
2023-01-08T06:25:26.266Z,99077.69
2023-01-08T06:27:53.134Z,99080.34
2023-01-08T06:30:19.716Z,99068.47
2023-01-08T06:32:46.258Z,99063.63
2023-01-08T06:35:12.986Z,99049.13
2023-01-08T06:37:39.557Z,99060.34
2023-01-08T06:40:06.775Z,99060.28
2023-01-08T06:42:33.352Z,99069.03
2023-01-08T06:44:59.917Z,99063.63
2023-01-08T06:47:26.472Z,99057.63
2023-01-08T06:49:53.114Z,99055.44
2023-01-08T06:52:19.685Z,99053.16
2023-01-08T06:54:46.223Z,99047.88
2023-01-08T06:57:12.814Z,99051.69
2023-01-08T06:59:39.359Z,99052.34
2023-01-08T07:02:06.212Z,99051.50
2023-01-08T07:04:32.961Z,99044.56
2023-01-08T07:06:59.526Z,99041.47
2023-01-08T07:09:26.126Z,99045.50
2023-01-08T07:11:52.657Z,99042.59
2023-01-08T07:14:19.292Z,99029.19
2023-01-08T07:16:45.893Z,99036.19
2023-01-08T07:19:12.678Z,99021.59
2023-01-08T07:21:39.373Z,99039.22
2023-01-08T07:24:07.583Z,99046.22
2023-01-08T07:26:34.527Z,99040.28
2023-01-08T07:29:01.131Z,99043.84
2023-01-08T07:31:27.803Z,99033.34
2023-01-08T07:33:54.463Z,99038.63
2023-01-08T07:36:22.845Z,99056.78
2023-01-08T07:38:49.932Z,99059.00
2023-01-08T07:41:17.298Z,99068.47
2023-01-08T07:43:44.097Z,99066.00
2023-01-08T07:46:10.719Z,99065.63
2023-01-08T07:48:37.331Z,99061.25
2023-01-08T07:51:05.934Z,99060.25
2023-01-08T07:53:32.816Z,99052.47
2023-01-08T07:56:03.878Z,99039.50
2023-01-08T07:58:30.676Z,99044.84
2023-01-08T08:00:59.232Z,99033.25
2023-01-08T08:03:26.179Z,99037.81
2023-01-08T08:05:52.934Z,99033.78
2023-01-08T08:08:19.950Z,99029.09
2023-01-08T08:10:47.521Z,99024.28
2023-01-08T08:13:14.084Z,99007.75
2023-01-08T08:15:41.347Z,99012.16
2023-01-08T08:18:08.425Z,99009.69
2023-01-08T08:20:35.252Z,99009.69
2023-01-08T08:23:03.529Z,99003.38
2023-01-08T08:25:30.352Z,98995.88
2023-01-08T08:27:58.709Z,98989.56
2023-01-08T08:30:26.818Z,98995.31
2023-01-08T08:32:54.208Z,98984.84
2023-01-08T08:35:21.319Z,98990.78
2023-01-08T08:37:47.927Z,98990.56
2023-01-08T08:40:14.520Z,98990.78
2023-01-08T08:42:41.089Z,98989.53
2023-01-08T08:45:08.223Z,98976.53
2023-01-08T08:47:34.849Z,98973.31
2023-01-08T08:50:02.278Z,98967.44
2023-01-08T08:52:30.514Z,98974.44
2023-01-08T08:54:57.267Z,98972.84
2023-01-08T08:57:24.527Z,98969.31
2023-01-08T08:59:51.106Z,98978.72
2023-01-08T09:02:17.874Z,98966.06
2023-01-08T09:04:44.547Z,98956.31
2023-01-08T09:07:11.179Z,98961.00
2023-01-08T09:09:37.821Z,98964.84
2023-01-08T09:12:04.536Z,98968.25
2023-01-08T09:14:31.132Z,98957.28
2023-01-08T09:16:57.722Z,98954.81
2023-01-08T09:19:24.404Z,98959.69
2023-01-08T09:21:51.173Z,98956.53
2023-01-08T09:24:17.904Z,98942.66
2023-01-08T09:26:44.532Z,98943.72
2023-01-08T09:29:11.116Z,98937.16
2023-01-08T09:31:37.716Z,98934.16
2023-01-08T09:34:04.315Z,98931.53
2023-01-08T09:36:30.935Z,98928.66
2023-01-08T09:38:57.468Z,98921.94
2023-01-08T09:41:44.449Z,98918.97
2023-01-08T09:44:16.254Z,98913.47
2023-01-08T09:46:43.091Z,98912.06
2023-01-08T09:49:14.895Z,98899.09
2023-01-08T09:51:41.645Z,98901.38
2023-01-08T09:54:14.566Z,98892.03
2023-01-08T09:56:42.216Z,98890.63
2023-01-08T09:59:12.803Z,98883.94
2023-01-08T10:01:41.038Z,98874.38
2023-01-08T10:04:15.578Z,98865.59
2023-01-08T10:06:49.203Z,98861.75
2023-01-08T10:09:15.952Z,98856.22
2023-01-08T10:11:45.120Z,98848.03
2023-01-08T10:14:26.602Z,98831.06
2023-01-08T10:17:03.368Z,98821.44
2023-01-08T10:19:30.010Z,98813.72
2023-01-08T10:21:57.196Z,98806.97
2023-01-08T10:24:37.899Z,98800.22
2023-01-08T10:27:13.484Z,98796.31
2023-01-08T10:29:40.084Z,98795.31
2023-01-08T10:32:15.432Z,98793.88
2023-01-08T10:34:46.847Z,98796.31
2023-01-08T10:37:21.825Z,98790.41
2023-01-08T10:39:48.781Z,98803.69
2023-01-08T10:42:17.735Z,98801.47
2023-01-08T10:45:13.965Z,98794.13
2023-01-08T10:47:46.348Z,98807.81
2023-01-08T10:50:20.875Z,98813.47
2023-01-08T10:52:55.654Z,98825.91
2023-01-08T11:06:50.940Z,98825.44
2023-01-08T11:09:25.744Z,98824.00
2023-01-08T11:11:53.757Z,98818.50
2023-01-08T11:14:35.332Z,98814.38
2023-01-08T11:17:09.385Z,98807.03
2023-01-08T11:19:36.435Z,98810.28
2023-01-08T11:22:05.417Z,98795.56
2023-01-08T11:24:38.699Z,98787.22
2023-01-08T11:27:09.900Z,98784.53
2023-01-08T11:29:38.773Z,98775.78
2023-01-08T11:32:20.185Z,98785.78
2023-01-08T11:35:07.995Z,98784.16
2023-01-08T11:37:37.897Z,98776.41
2023-01-08T11:40:16.869Z,98778.66
2023-01-08T11:43:01.759Z,98777.25
2023-01-08T11:46:04.013Z,98776.84
2023-01-08T11:48:36.480Z,98779.06
2023-01-08T11:51:27.863Z,98782.56
2023-01-08T11:54:06.584Z,98779.28
2023-01-08T11:56:51.492Z,98800.91
2023-01-08T11:59:42.235Z,98790.09
2023-01-08T12:02:27.618Z,98782.78
2023-01-08T12:05:00.154Z,98792.16
2023-01-08T12:07:53.277Z,98793.00
2023-01-08T12:10:41.477Z,98792.38
2023-01-08T12:13:41.240Z,98797.03
2023-01-08T12:16:33.892Z,98802.56
2023-01-08T12:19:14.987Z,98798.44
2023-01-08T12:21:44.582Z,98786.41
2023-01-08T12:24:29.499Z,98774.91
2023-01-08T12:27:13.610Z,98776.09
2023-01-08T12:29:53.804Z,98767.50
2023-01-08T12:32:26.183Z,98770.56
2023-01-08T12:35:23.555Z,98775.78
2023-01-08T12:37:57.988Z,98787.41
2023-01-08T12:40:28.631Z,98792.50
2023-01-08T12:43:01.135Z,98799.56
2023-01-08T12:45:40.984Z,98786.50
2023-01-08T12:48:11.680Z,98796.22
2023-01-08T12:50:51.912Z,98789.25
2023-01-08T12:53:27.212Z,98795.63
2023-01-08T12:56:14.441Z,98783.97
2023-01-08T12:58:54.919Z,98788.63
2023-01-08T13:01:43.935Z,98774.50
2023-01-08T13:04:11.212Z,98780.97
2023-01-08T13:06:38.030Z,98770.78
2023-01-08T13:09:04.793Z,98777.09
2023-01-08T13:11:37.452Z,98774.69
2023-01-08T13:14:06.609Z,98762.13
2023-01-08T13:16:45.549Z,98763.41
2023-01-08T13:19:26.689Z,98769.94
2023-01-08T13:21:58.148Z,98770.19
2023-01-08T13:24:32.305Z,98773.13
2023-01-08T13:27:17.558Z,98761.09
2023-01-08T13:29:51.301Z,98759.09
2023-01-08T13:32:29.686Z,98761.34
2023-01-08T13:35:14.594Z,98773.78
2023-01-08T13:37:47.125Z,98780.34
2023-01-08T13:40:44.619Z,98767.06
2023-01-08T13:43:30.553Z,98764.81
2023-01-08T13:46:00.220Z,98765.22
2023-01-08T13:48:30.030Z,98755.22
2023-01-08T13:50:56.799Z,98759.50
2023-01-08T13:53:24.254Z,98763.56
2023-01-08T13:56:02.711Z,98764.00
2023-01-08T13:58:36.753Z,98770.53
2023-01-08T14:01:04.439Z,98772.56
2023-01-08T14:03:38.590Z,98772.56
2023-01-08T14:06:13.487Z,98781.13
2023-01-08T14:08:55.530Z,98776.25
2023-01-08T14:11:30.077Z,98781.34
2023-01-08T14:13:57.380Z,98777.03
2023-01-08T14:16:24.020Z,98775.84
2023-01-08T14:18:51.223Z,98786.03
2023-01-08T14:21:22.037Z,98780.97
2023-01-08T14:23:49.875Z,98773.38
2023-01-08T14:26:24.516Z,98776.03
2023-01-08T14:28:55.047Z,98770.75
2023-01-08T14:31:25.405Z,98773.81
2023-01-08T14:33:53.553Z,98771.75
2023-01-08T14:36:20.718Z,98771.13
2023-01-08T14:38:50.930Z,98767.88
2023-01-08T14:41:46.243Z,98767.88
2023-01-08T14:44:19.098Z,98776.63
2023-01-08T14:46:50.002Z,98777.84
2023-01-08T14:49:25.675Z,98773.97
2023-01-08T14:51:52.996Z,98760.50
2023-01-08T14:54:26.430Z,98764.56
2023-01-08T14:56:55.433Z,98769.88
2023-01-08T14:59:24.218Z,98765.81
2023-01-08T15:01:53.013Z,98756.81
2023-01-08T15:04:21.405Z,98756.63
2023-01-08T15:06:49.238Z,98769.28
2023-01-08T15:09:21.000Z,98772.72
2023-01-08T15:12:04.898Z,98768.63
2023-01-08T15:14:33.488Z,98771.09
2023-01-08T15:17:25.356Z,98767.19
2023-01-08T15:19:55.320Z,98762.91
2023-01-08T15:22:24.891Z,98758.84
2023-01-08T15:24:59.375Z,98752.50
2023-01-08T15:27:26.369Z,98757.78
2023-01-08T15:30:03.643Z,98765.56
2023-01-08T15:32:34.717Z,98768.00
2023-01-08T15:35:01.619Z,98775.34
2023-01-08T15:37:28.368Z,98770.66
2023-01-08T15:39:54.936Z,98765.72
2023-01-08T15:42:47.803Z,98759.59
2023-01-08T15:45:16.631Z,98755.31
2023-01-08T15:47:43.246Z,98750.00
2023-01-08T15:50:10.525Z,98758.16
2023-01-08T15:52:39.025Z,98747.53
2023-01-08T15:55:06.226Z,98755.72
2023-01-08T15:57:32.888Z,98756.75
2023-01-08T15:59:59.535Z,98752.47
2023-01-08T16:02:26.265Z,98751.22
2023-01-08T16:04:56.572Z,98749.38
2023-01-08T16:07:23.294Z,98738.56
2023-01-08T16:09:49.837Z,98739.97
2023-01-08T16:12:16.364Z,98746.31
2023-01-08T16:14:42.897Z,98743.06
2023-01-08T16:17:10.081Z,98744.47
2023-01-08T16:19:36.663Z,98737.91
2023-01-08T16:22:04.658Z,98740.34
2023-01-08T16:24:31.672Z,98748.47
2023-01-08T16:26:58.354Z,98748.69
2023-01-08T16:29:25.026Z,98748.09
2023-01-08T16:31:51.650Z,98746.03
2023-01-08T16:34:18.282Z,98748.28
2023-01-08T16:36:44.926Z,98737.47
2023-01-08T16:39:11.555Z,98746.81
2023-01-08T16:41:38.149Z,98751.47
2023-01-08T16:44:04.903Z,98752.53
2023-01-08T16:46:32.202Z,98756.41
2023-01-08T16:48:58.745Z,98750.47
2023-01-08T16:51:27.563Z,98749.66
2023-01-08T16:53:54.138Z,98760.44
2023-01-08T16:56:20.706Z,98755.53
2023-01-08T16:58:50.109Z,98748.59
2023-01-08T17:01:16.752Z,98748.59
2023-01-08T17:03:43.478Z,98742.06
2023-01-08T17:06:12.529Z,98730.41
2023-01-08T17:08:43.092Z,98730.94
2023-01-08T17:11:11.636Z,98725.59
2023-01-08T17:13:38.365Z,98729.41
2023-01-08T17:16:07.058Z,98722.44
2023-01-08T17:18:34.039Z,98727.88
2023-01-08T17:21:00.804Z,98714.59
2023-01-08T17:23:28.788Z,98724.13
2023-01-08T17:25:56.652Z,98727.97
2023-01-08T17:28:25.164Z,98725.88
2023-01-08T17:31:01.900Z,98730.31
2023-01-08T17:33:28.506Z,98723.81
2023-01-08T17:35:55.118Z,98708.59
2023-01-08T17:38:21.745Z,98700.84
2023-01-08T17:40:48.338Z,98726.47
2023-01-08T17:43:14.971Z,98718.75
2023-01-08T17:45:41.683Z,98713.81
2023-01-08T17:48:08.332Z,98729.25
2023-01-08T17:50:34.915Z,98731.91
2023-01-08T17:53:01.580Z,98732.91
2023-01-08T17:55:28.197Z,98738.84
2023-01-08T17:57:54.759Z,98738.16
2023-01-08T18:00:21.723Z,98736.50
2023-01-08T18:02:48.326Z,98735.50
2023-01-08T18:05:15.604Z,98733.38
2023-01-08T18:07:42.602Z,98734.69
2023-01-08T18:10:10.038Z,98735.63
2023-01-08T18:12:36.727Z,98723.81
2023-01-08T18:15:05.211Z,98725.03
2023-01-08T18:17:32.580Z,98720.66
2023-01-08T18:19:59.181Z,98728.41
2023-01-08T18:22:25.935Z,98734.44
2023-01-08T18:24:52.553Z,98729.97
2023-01-08T18:27:19.135Z,98733.00
2023-01-08T18:29:45.696Z,98733.47
2023-01-08T18:32:12.363Z,98737.50
2023-01-08T18:34:39.217Z,98727.38
2023-01-08T18:37:05.881Z,98725.13
2023-01-08T18:39:33.380Z,98723.28
2023-01-08T18:42:18.999Z,98714.28
2023-01-08T18:44:45.635Z,98707.94
2023-01-08T18:47:12.591Z,98699.13
2023-01-08T18:49:39.183Z,98688.91
2023-01-08T18:52:05.973Z,98700.69
2023-01-08T18:54:35.068Z,98698.16
2023-01-08T18:57:01.886Z,98704.59
2023-01-08T18:59:28.488Z,98717.97
2023-01-08T19:01:55.108Z,98715.28
2023-01-08T19:04:21.763Z,98700.06
2023-01-08T19:06:48.352Z,98699.00
2023-01-08T19:09:15.272Z,98706.09
2023-01-08T19:11:44.735Z,98694.44
2023-01-08T19:14:12.637Z,98686.88
2023-01-08T19:16:40.225Z,98686.88
2023-01-08T19:19:07.035Z,98680.53
2023-01-08T19:21:33.615Z,98674.22
2023-01-08T19:24:00.211Z,98678.63
2023-01-08T19:26:26.745Z,98664.53
2023-01-08T19:28:53.285Z,98667.63
2023-01-08T19:31:19.946Z,98667.78
2023-01-08T19:33:46.748Z,98663.06
2023-01-08T19:36:16.482Z,98656.09
2023-01-08T19:38:44.477Z,98646.16
2023-01-08T19:41:30.150Z,98641.16
2023-01-08T19:43:57.205Z,98653.06
2023-01-08T19:46:24.190Z,98653.19
2023-01-08T19:48:50.883Z,98652.06
2023-01-08T19:51:17.699Z,98657.91
2023-01-08T19:53:44.377Z,98656.78
2023-01-08T19:56:13.264Z,98667.34
2023-01-08T19:58:39.916Z,98653.44
2023-01-08T20:01:15.663Z,98648.97
2023-01-08T20:03:42.935Z,98644.69
2023-01-08T20:06:16.284Z,98646.53
2023-01-08T20:08:45.449Z,98643.16
2023-01-08T20:11:14.200Z,98643.81
2023-01-08T20:13:41.256Z,98645.91
2023-01-08T20:16:11.603Z,98651.44
2023-01-08T20:18:38.899Z,98635.06
2023-01-08T20:21:15.512Z,98641.06
2023-01-08T20:23:43.361Z,98640.22
2023-01-08T20:26:14.963Z,98641.88
2023-01-08T20:28:43.229Z,98627.88
2023-01-08T20:31:12.349Z,98631.97
2023-01-08T20:33:39.661Z,98622.88
2023-01-08T20:36:17.911Z,98622.22
2023-01-08T20:38:45.217Z,98613.53
2023-01-08T20:41:12.214Z,98605.06
2023-01-08T20:43:40.039Z,98602.63
2023-01-08T20:46:09.843Z,98598.06
2023-01-08T20:48:42.942Z,98587.72
2023-01-08T20:51:13.458Z,98580.34
2023-01-08T20:53:40.335Z,98579.31
2023-01-08T20:56:12.957Z,98579.06
2023-01-08T20:58:41.841Z,98569.97
2023-01-08T21:01:17.508Z,98558.50
2023-01-08T21:03:45.664Z,98547.63
2023-01-08T21:06:18.022Z,98545.81
2023-01-08T21:08:46.051Z,98540.34
2023-01-08T21:11:13.857Z,98538.09
2023-01-08T21:13:40.619Z,98546.63
2023-01-08T21:16:13.649Z,98534.00
2023-01-08T21:18:49.308Z,98525.81
2023-01-08T21:21:18.047Z,98528.25
2023-01-08T21:23:45.813Z,98515.91
2023-01-08T21:26:13.015Z,98524.53
2023-01-08T21:28:40.718Z,98503.66
2023-01-08T21:31:17.150Z,98504.81
2023-01-08T21:33:46.488Z,98497.00
2023-01-08T21:36:19.843Z,98492.34
2023-01-08T21:38:46.733Z,98473.69
2023-01-08T21:41:33.914Z,98480.47
2023-01-08T21:44:20.029Z,98474.75
2023-01-08T21:46:46.809Z,98479.28
2023-01-08T21:49:13.473Z,98466.50
2023-01-08T21:51:58.474Z,98458.97
2023-01-08T21:54:25.118Z,98458.59
2023-01-08T21:56:51.685Z,98442.78
2023-01-08T21:59:19.048Z,98437.88
2023-01-08T22:01:46.231Z,98434.78
2023-01-08T22:04:12.961Z,98423.63
2023-01-08T22:06:39.609Z,98429.44
2023-01-08T22:09:06.204Z,98407.44
2023-01-08T22:11:33.639Z,98410.25
2023-01-08T22:14:00.315Z,98416.16
2023-01-08T22:16:27.011Z,98407.44
2023-01-08T22:18:53.611Z,98396.09
2023-01-08T22:21:20.360Z,98398.25
2023-01-08T22:23:46.950Z,98396.63
2023-01-08T22:26:13.838Z,98395.91
2023-01-08T22:28:41.455Z,98387.72
2023-01-08T22:31:12.837Z,98394.25
2023-01-08T22:33:39.800Z,98389.88
2023-01-08T22:36:08.941Z,98389.69
2023-01-08T22:38:36.170Z,98383.34
2023-01-08T22:41:03.225Z,98383.81
2023-01-08T22:43:29.817Z,98369.69
2023-01-08T22:45:58.604Z,98360.31
2023-01-08T22:48:26.430Z,98357.06
2023-01-08T22:50:53.243Z,98364.41
2023-01-08T22:53:19.919Z,98353.88
2023-01-08T22:55:47.541Z,98336.03
2023-01-08T22:58:17.617Z,98334.19
2023-01-08T23:00:44.599Z,98332.34
2023-01-08T23:03:11.796Z,98335.34
2023-01-08T23:05:38.621Z,98337.25
2023-01-08T23:08:05.815Z,98319.44
2023-01-08T23:10:32.564Z,98307.25
2023-01-08T23:12:59.280Z,98308.94
2023-01-08T23:15:25.988Z,98308.56
2023-01-08T23:17:53.017Z,98302.50
2023-01-08T23:20:20.701Z,98297.84
2023-01-08T23:22:47.973Z,98296.84
2023-01-08T23:25:15.128Z,98300.47
2023-01-08T23:27:41.766Z,98282.03
2023-01-08T23:30:09.150Z,98264.22
2023-01-08T23:32:35.755Z,98283.34
2023-01-08T23:35:02.372Z,98269.78
2023-01-08T23:37:28.967Z,98267.72
2023-01-08T23:39:55.528Z,98269.78
2023-01-08T23:42:22.120Z,98259.19
2023-01-08T23:44:49.532Z,98256.34
2023-01-08T23:47:16.102Z,98245.56
2023-01-08T23:49:42.680Z,98245.03
2023-01-08T23:52:09.286Z,98243.84
2023-01-08T23:54:35.948Z,98243.66
2023-01-08T23:57:06.062Z,98235.06
2023-01-08T23:59:32.957Z,98227.69
